Suula — OJKZ — position and weather

sailwx.info

Track history (hours):
 
Tides and Currents Weather Stations Pressure Air Temp Water Temp Dewpoint Dewpoint Depression Visibility Wind Speed Wind Dir Waves Ship Positions

Suula

Last reported at 2017-Jan-19 18:33 UTC. Time now 2017-Jan-20 07:52 UTC.
Position N 59°56' E 021°39'.

Length 140 m; draft 6.5 m.

Type: Tanker. MMSI: 230956996.

Date/timePositionNaut miles runAvg speedWind from/ knotsBaromVisibWave heightAir tempDewpointWater temp
2017-Jan-19 18:33N 59°56' E 021°39'1313.3
2017-Jan-19 17:34N 59°46' E 021°21'1312.8
2017-Jan-19 16:33N 59°35' E 021°33'4413.5
2017-Jan-19 13:18N 59°37' E 022°59'1114.1
2017-Jan-19 12:33N 59°39' E 023°20'1414.2
2017-Jan-19 11:33N 59°42' E 023°47'6 0.2
2017-Jan-18 03:33N 59°39' E 023°56'1514.7
2017-Jan-18 02:33N 59°35' E 023°28'6013.5
2017-Jan-17 22:07N 59°30' E 021°31'814.4
2017-Jan-17 21:33N 59°32' E 021°16'4713.7
2017-Jan-17 18:08N 59°45' E 019°47'814.3
2017-Jan-17 17:34N 59°50' E 019°35'1514.7
2017-Jan-17 16:33N 60°02' E 019°16'  
2017-Jan-14 14:33N 59°60' E 019°25'6713.4
2017-Jan-14 09:32N 59°31' E 021°26'1414.0
2017-Jan-14 08:34N 59°31' E 021°53'4113.8
2017-Jan-14 05:34N 59°38' E 023°13'1413.9
2017-Jan-14 04:33N 59°42' E 023°40'1413.9
2017-Jan-14 03:33N 59°45' E 024°06'4 0.1
2017-Jan-12 14:27N 59°42' E 024°11'1112.3
2017-Jan-12 13:33N 59°38' E 023°50'1212.0
2017-Jan-12 12:33N 59°35' E 023°27'59 5.7
2017-Jan-12 02:11N 59°29' E 021°32'1 1.9
2017-Jan-12 01:33N 59°30' E 021°30'2 2.0
2017-Jan-12 00:32N 59°32' E 021°28'2 1.9
2017-Jan-11 23:33N 59°34' E 021°26'2 1.9
2017-Jan-11 22:33N 59°35' E 021°25'2 1.7
2017-Jan-11 21:34N 59°37' E 021°23'2 2.0
2017-Jan-11 20:33N 59°39' E 021°22'2 1.8
2017-Jan-11 19:33N 59°40' E 021°21'2 2.1
2017-Jan-11 18:33N 59°42' E 021°20'2 2.1
2017-Jan-11 17:34N 59°45' E 021°21'3 2.7
2017-Jan-11 16:34N 59°47' E 021°21'9 9.4
2017-Jan-11 15:33N 59°54' E 021°34'3 0.1
2017-Jan-10 03:29N 59°55' E 021°38'1213.0
2017-Jan-10 02:33N 59°47' E 021°21'1212.4
2017-Jan-10 01:33N 59°36' E 021°31'5012.6
2017-Jan-09 21:33N 59°38' E 023°11'1312.8
2017-Jan-09 20:33N 59°41' E 023°35'1312.8
2017-Jan-09 19:33N 59°44' E 023°60'  
Track history (hours):
 
Tides and Currents Weather Stations Pressure Air Temp Water Temp Dewpoint Dewpoint Depression Visibility Wind Speed Wind Dir Waves Ship Positions

Suula

Last reported at 2017-Jan-19 18:33 UTC. Time now 2017-Jan-20 07:52 UTC.
Position N 59°56' E 021°39'.

Length 140 m; draft 6.5 m.

Type: Tanker. MMSI: 230956996.

Date/timePositionNaut miles runAvg speedWind from/ knotsBaromVisibWave heightAir tempDewpointWater temp
2017-Jan-19 18:33N 59°56' E 021°39'1313.3
2017-Jan-19 17:34N 59°46' E 021°21'1312.8
2017-Jan-19 16:33N 59°35' E 021°33'4413.5
2017-Jan-19 13:18N 59°37' E 022°59'1114.1
2017-Jan-19 12:33N 59°39' E 023°20'1414.2
2017-Jan-19 11:33N 59°42' E 023°47'6 0.2
2017-Jan-18 03:33N 59°39' E 023°56'1514.7
2017-Jan-18 02:33N 59°35' E 023°28'6013.5
2017-Jan-17 22:07N 59°30' E 021°31'814.4
2017-Jan-17 21:33N 59°32' E 021°16'4713.7
2017-Jan-17 18:08N 59°45' E 019°47'814.3
2017-Jan-17 17:34N 59°50' E 019°35'1514.7
2017-Jan-17 16:33N 60°02' E 019°16'  
2017-Jan-14 14:33N 59°60' E 019°25'6713.4
2017-Jan-14 09:32N 59°31' E 021°26'1414.0
2017-Jan-14 08:34N 59°31' E 021°53'4113.8
2017-Jan-14 05:34N 59°38' E 023°13'1413.9
2017-Jan-14 04:33N 59°42' E 023°40'1413.9
2017-Jan-14 03:33N 59°45' E 024°06'4 0.1
2017-Jan-12 14:27N 59°42' E 024°11'1112.3
2017-Jan-12 13:33N 59°38' E 023°50'1212.0
2017-Jan-12 12:33N 59°35' E 023°27'59 5.7
2017-Jan-12 02:11N 59°29' E 021°32'1 1.9
2017-Jan-12 01:33N 59°30' E 021°30'2 2.0
2017-Jan-12 00:32N 59°32' E 021°28'2 1.9
2017-Jan-11 23:33N 59°34' E 021°26'2 1.9
2017-Jan-11 22:33N 59°35' E 021°25'2 1.7
2017-Jan-11 21:34N 59°37' E 021°23'2 2.0
2017-Jan-11 20:33N 59°39' E 021°22'2 1.8
2017-Jan-11 19:33N 59°40' E 021°21'2 2.1
2017-Jan-11 18:33N 59°42' E 021°20'2 2.1
2017-Jan-11 17:34N 59°45' E 021°21'3 2.7
2017-Jan-11 16:34N 59°47' E 021°21'9 9.4
2017-Jan-11 15:33N 59°54' E 021°34'3 0.1
2017-Jan-10 03:29N 59°55' E 021°38'1213.0
2017-Jan-10 02:33N 59°47' E 021°21'1212.4
2017-Jan-10 01:33N 59°36' E 021°31'5012.6
2017-Jan-09 21:33N 59°38' E 023°11'1312.8
2017-Jan-09 20:33N 59°41' E 023°35'1312.8
2017-Jan-09 19:33N 59°44' E 023°60'  

Dump ship's entire track history